Time;durP1;ratioP1;P1;durP2;ratioP2;P2;SDS_P1;SDS_P2;PMS_P1;PMS_P2;Temp;Humidity;BMP_temperature;BMP_pressure;BME280_temperature;BME280_humidity;BME280_pressure;Samples;Min_cycle;Max_cycle;Signal;HPM_P1;HPM_P2
2021/05/31 00:01:41;;;;;;;5.63;5.05;;;;;;;14.75;58.15;99847.19;5053579;28;20273;-75
2021/05/31 00:04:07;;;;;;;5.63;5.13;;;;;;;14.78;57.94;99846.09;5053715;28;20244;-74
2021/05/31 00:06:40;;;;;;;7.32;5.03;;;;;;;14.83;57.41;99846.63;5053727;28;20299;-72
2021/05/31 00:09:06;;;;;;;5.88;5.20;;;;;;;14.72;57.81;99849.22;5053679;28;20192;-74
2021/05/31 00:11:33;;;;;;;6.25;5.10;;;;;;;14.80;57.58;99847.72;5053468;28;20197;-74
2021/05/31 00:13:59;;;;;;;6.22;5.28;;;;;;;14.71;58.09;99840.25;5053646;28;20288;-73
2021/05/31 00:16:25;;;;;;;5.90;5.00;;;;;;;14.87;57.86;99840.00;5053555;28;20192;-74
2021/05/31 00:18:51;;;;;;;6.00;5.43;;;;;;;14.83;57.66;99851.19;5053852;28;20650;-73
2021/05/31 00:21:18;;;;;;;4.90;4.50;;;;;;;14.75;56.63;99849.88;5053303;28;20204;-74
2021/05/31 00:23:44;;;;;;;7.65;5.28;;;;;;;14.64;57.83;99843.50;5053613;28;20669;-73
2021/05/31 00:26:11;;;;;;;5.35;4.85;;;;;;;14.60;58.08;99843.72;5053648;28;20208;-74
2021/05/31 00:28:38;;;;;;;5.55;5.05;;;;;;;14.43;59.40;99840.44;5053037;28;20231;-74
2021/05/31 00:31:04;;;;;;;6.72;4.40;;;;;;;14.24;60.12;99835.44;5053746;28;20188;-74
2021/05/31 00:33:30;;;;;;;5.30;4.80;;;;;;;14.12;60.63;99835.31;5053767;28;20630;-75
2021/05/31 00:35:56;;;;;;;7.82;4.97;;;;;;;14.13;60.84;99842.47;5053070;28;20213;-73
2021/05/31 00:38:22;;;;;;;5.35;4.93;;;;;;;14.13;60.06;99836.16;5053794;28;20188;-73
2021/05/31 00:40:48;;;;;;;6.70;5.30;;;;;;;14.09;60.74;99834.69;5052935;28;20979;-76
2021/05/31 00:43:14;;;;;;;5.13;4.63;;;;;;;14.08;60.58;99836.50;5053063;28;20188;-75
2021/05/31 00:45:42;;;;;;;5.78;5.18;;;;;;;14.28;59.35;99835.09;5053277;28;20301;-73
2021/05/31 00:48:08;;;;;;;7.32;4.80;;;;;;;14.33;59.28;99835.66;5053581;28;20954;-72
2021/05/31 00:50:34;;;;;;;6.00;4.80;;;;;;;14.06;60.01;99838.44;5053367;28;20192;-73
2021/05/31 00:53:01;;;;;;;5.18;4.63;;;;;;;14.12;59.90;99838.03;5053003;28;20294;-74
2021/05/31 00:55:27;;;;;;;5.22;4.70;;;;;;;13.98;60.28;99832.69;5052926;28;20247;-75
2021/05/31 00:57:55;;;;;;;6.20;4.90;;;;;;;14.05;59.95;99831.28;5053017;28;20233;-72
2021/05/31 01:00:26;;;;;;;6.05;5.45;;;;;;;14.01;59.99;99835.19;5052761;28;20201;-74
2021/05/31 01:02:53;;;;;;;5.47;4.57;;;;;;;14.08;59.85;99835.63;5053503;28;20231;-74
2021/05/31 01:05:22;;;;;;;4.80;4.22;;;;;;;13.87;61.25;99843.38;5052697;28;20265;-73
2021/05/31 01:07:52;;;;;;;6.22;4.97;;;;;;;13.85;61.25;99840.78;5053161;28;20188;-75
2021/05/31 01:10:25;;;;;;;5.40;4.90;;;;;;;13.57;62.44;99839.06;5053348;28;20207;-73
2021/05/31 01:12:56;;;;;;;5.82;5.10;;;;;;;13.48;62.65;99840.56;5052992;28;20196;-75
2021/05/31 01:15:26;;;;;;;6.32;5.25;;;;;;;13.24;64.05;99839.44;5053318;28;20266;-74
2021/05/31 01:17:59;;;;;;;6.28;5.05;;;;;;;13.29;63.87;99832.75;5053003;28;20190;-73
2021/05/31 01:20:53;;;;;;;5.78;5.28;;;;;;;13.22;64.47;99836.81;5052727;28;20224;-73
2021/05/31 01:23:21;;;;;;;8.77;4.95;;;;;;;13.30;64.09;99839.06;5052579;28;20476;-73
2021/05/31 01:25:58;;;;;;;8.35;5.72;;;;;;;13.08;64.74;99831.44;5052584;28;20285;-73
2021/05/31 01:28:52;;;;;;;5.40;4.90;;;;;;;13.08;64.55;99832.31;5053221;28;20193;-74
2021/05/31 01:31:22;;;;;;;6.65;5.35;;;;;;;12.98;65.00;99836.59;5052280;28;20197;-74
2021/05/31 01:33:51;;;;;;;8.55;6.78;;;;;;;13.04;65.12;99836.16;5052576;28;20186;-73
2021/05/31 01:36:18;;;;;;;8.45;6.28;;;;;;;12.77;66.36;99835.25;5052834;28;20579;-75
2021/05/31 01:38:46;;;;;;;9.20;6.45;;;;;;;12.75;66.53;99829.91;5052230;28;20208;-75
2021/05/31 01:41:13;;;;;;;13.95;7.85;;;;;;;12.76;66.52;99831.69;5051916;28;20759;-73
2021/05/31 01:43:40;;;;;;;8.20;7.07;;;;;;;12.61;66.70;99827.22;5052763;28;20233;-74
2021/05/31 01:46:08;;;;;;;13.40;9.68;;;;;;;12.77;66.15;99836.09;5052224;28;20263;-74
2021/05/31 01:48:34;;;;;;;6.10;5.45;;;;;;;12.70;66.39;99830.22;5052079;28;20202;-74
2021/05/31 01:51:02;;;;;;;7.13;5.60;;;;;;;12.65;66.75;99828.78;5052432;28;20193;-74
2021/05/31 01:53:29;;;;;;;7.70;5.28;;;;;;;12.61;67.14;99825.41;5051601;28;20205;-76
2021/05/31 01:55:56;;;;;;;6.35;5.75;;;;;;;12.63;66.84;99819.91;5052511;28;20247;-73
2021/05/31 01:58:23;;;;;;;7.38;5.10;;;;;;;12.61;67.00;99820.00;5051389;28;20235;-73
2021/05/31 02:00:50;;;;;;;6.25;4.90;;;;;;;12.58;66.83;99816.63;5051890;28;20244;-72
2021/05/31 02:03:17;;;;;;;5.70;5.20;;;;;;;12.73;66.60;99816.53;5051960;28;20205;-72
2021/05/31 02:05:43;;;;;;;5.90;5.30;;;;;;;12.62;66.82;99819.03;5052304;28;20630;-74
2021/05/31 02:08:10;;;;;;;5.65;5.15;;;;;;;12.56;67.08;99816.72;5052261;28;20217;-73
2021/05/31 02:10:36;;;;;;;7.05;6.35;;;;;;;12.63;66.65;99803.69;5052486;28;20189;-74
2021/05/31 02:13:04;;;;;;;6.78;5.80;;;;;;;12.75;66.92;99804.75;5052402;28;20196;-73
2021/05/31 02:15:36;;;;;;;6.38;5.25;;;;;;;12.82;66.36;99806.97;5052243;28;20200;-75
2021/05/31 02:18:10;;;;;;;8.32;5.18;;;;;;;12.52;67.30;99807.06;5052291;28;20281;-74
2021/05/31 02:20:38;;;;;;;8.30;6.95;;;;;;;12.54;67.93;99806.97;5052209;28;20189;-73
2021/05/31 02:23:06;;;;;;;11.25;5.80;;;;;;;12.43;68.47;99794.16;5052089;28;20235;-74
2021/05/31 02:25:33;;;;;;;6.20;5.57;;;;;;;12.37;68.16;99798.13;5051895;28;20208;-75
2021/05/31 02:28:04;;;;;;;6.32;5.72;;;;;;;12.37;68.01;99803.50;5052171;28;20217;-75
2021/05/31 02:30:31;;;;;;;6.97;6.00;;;;;;;12.43;67.59;99796.84;5051810;28;20229;-74
2021/05/31 02:32:59;;;;;;;7.25;5.90;;;;;;;12.59;66.72;99805.72;5051958;28;20201;-74
2021/05/31 02:35:28;;;;;;;8.40;6.18;;;;;;;12.58;66.71;99798.59;5051661;28;20348;-73
2021/05/31 02:37:56;;;;;;;8.52;5.50;;;;;;;12.40;66.60;99794.34;5051384;28;20620;-73
2021/05/31 02:40:22;;;;;;;6.55;5.93;;;;;;;12.44;66.93;99798.59;5051606;28;20316;-75
2021/05/31 02:42:51;;;;;;;6.50;5.85;;;;;;;12.52;66.27;99799.81;5051607;28;20201;-75
2021/05/31 02:45:19;;;;;;;7.45;5.85;;;;;;;12.41;66.67;99794.22;5052503;28;20296;-73
2021/05/31 02:47:46;;;;;;;8.98;5.55;;;;;;;12.48;66.00;99795.59;5051900;28;20202;-74
2021/05/31 02:50:14;;;;;;;8.48;5.80;;;;;;;12.43;66.02;99794.16;5051465;28;20185;-74
2021/05/31 02:52:41;;;;;;;6.82;5.72;;;;;;;12.55;65.52;99804.19;5051823;28;20189;-73
2021/05/31 02:55:12;;;;;;;5.97;5.47;;;;;;;12.43;65.63;99802.25;5051665;28;20209;-74
2021/05/31 02:57:39;;;;;;;6.57;5.60;;;;;;;12.53;65.38;99803.41;5051607;28;20241;-75
2021/05/31 03:00:08;;;;;;;5.35;4.85;;;;;;;12.34;66.02;99797.41;5051696;28;20277;-72
2021/05/31 03:02:34;;;;;;;5.90;5.38;;;;;;;12.33;66.13;99793.00;5051726;28;20600;-74
2021/05/31 03:05:00;;;;;;;7.68;5.60;;;;;;;12.20;66.49;99800.97;5054378;28;21054;-74
2021/05/31 03:07:27;;;;;;;6.00;5.38;;;;;;;12.13;66.69;99795.09;5055744;28;20977;-76
2021/05/31 03:09:53;;;;;;;5.57;5.07;;;;;;;12.16;66.84;99796.72;5055484;28;20655;-74
2021/05/31 03:12:21;;;;;;;5.65;5.05;;;;;;;12.18;66.42;99790.25;5055131;28;20189;-76
2021/05/31 03:14:47;;;;;;;6.15;5.28;;;;;;;12.17;67.02;99802.03;5055019;28;20182;-74
2021/05/31 03:17:14;;;;;;;6.22;5.47;;;;;;;11.87;68.25;99799.31;5055300;28;20201;-74
2021/05/31 03:19:40;;;;;;;6.63;4.95;;;;;;;11.63;69.10;99802.53;5055187;28;20192;-73
2021/05/31 03:22:06;;;;;;;6.45;5.75;;;;;;;11.69;68.88;99793.25;5055396;28;20661;-75
2021/05/31 03:24:32;;;;;;;5.70;5.15;;;;;;;11.69;68.81;99807.59;5054839;28;20288;-73
2021/05/31 03:26:59;;;;;;;7.35;5.85;;;;;;;11.66;68.95;99802.34;5055084;28;20205;-74
2021/05/31 03:29:26;;;;;;;6.35;5.75;;;;;;;11.51;69.65;99805.97;5055055;28;20638;-73
2021/05/31 03:31:52;;;;;;;9.48;5.65;;;;;;;11.50;69.63;99806.91;5055100;28;20197;-75
2021/05/31 03:34:18;;;;;;;7.38;5.30;;;;;;;11.44;69.94;99805.47;5054670;28;20288;-72
2021/05/31 03:36:45;;;;;;;7.72;6.10;;;;;;;11.50;69.96;99815.00;5054972;28;20687;-74
2021/05/31 03:39:11;;;;;;;6.55;5.60;;;;;;;11.72;69.45;99806.53;5054581;28;20209;-74
2021/05/31 03:41:37;;;;;;;6.63;5.93;;;;;;;11.58;69.47;99809.19;5055108;28;20217;-74
2021/05/31 03:44:03;;;;;;;6.15;5.57;;;;;;;11.35;70.62;99803.31;5054987;28;20583;-72
2021/05/31 03:46:31;;;;;;;6.30;5.70;;;;;;;11.27;71.29;99805.56;5054414;28;20734;-73
2021/05/31 03:48:57;;;;;;;6.80;6.10;;;;;;;11.21;71.34;99796.00;5054526;28;20193;-73
2021/05/31 03:51:23;;;;;;;7.47;6.70;;;;;;;11.38;70.82;99805.81;5054375;28;20211;-74
2021/05/31 03:53:49;;;;;;;6.57;5.55;;;;;;;11.52;69.96;99805.00;5054622;28;20632;-74
2021/05/31 03:56:16;;;;;;;9.25;5.95;;;;;;;11.45;70.14;99807.19;5054610;28;20204;-73
2021/05/31 03:58:44;;;;;;;7.05;6.25;;;;;;;11.64;68.90;99814.19;5054648;28;20753;-75
2021/05/31 04:01:11;;;;;;;9.68;6.60;;;;;;;11.48;69.73;99808.84;5054228;28;20192;-73
2021/05/31 04:03:39;;;;;;;6.15;5.55;;;;;;;11.29;70.69;99813.56;5054801;28;20288;-74
2021/05/31 04:06:16;;;;;;;7.30;6.13;;;;;;;11.29;70.99;99824.34;5054432;28;20209;-73
2021/05/31 04:11:36;;;;;;;8.13;5.93;;;;;;;11.52;69.94;99810.41;5054298;28;20196;-74
2021/05/31 04:14:07;;;;;;;6.15;5.35;;;;;;;11.57;69.28;99812.81;5054449;28;20533;-74
2021/05/31 04:16:35;;;;;;;9.13;6.05;;;;;;;11.59;69.38;99816.31;5053159;28;20288;-73
2021/05/31 04:19:03;;;;;;;6.47;5.80;;;;;;;11.38;70.27;99810.34;5054228;28;20591;-75
2021/05/31 04:21:29;;;;;;;8.43;5.95;;;;;;;11.30;70.73;99815.31;5053957;28;20209;-73
2021/05/31 04:23:57;;;;;;;9.82;6.50;;;;;;;11.37;70.63;99806.75;5053370;28;20193;-74
2021/05/31 04:26:23;;;;;;;6.57;5.97;;;;;;;11.40;70.50;99822.78;5053624;28;20244;-74
2021/05/31 04:28:49;;;;;;;6.28;5.65;;;;;;;11.46;70.35;99814.34;5053712;28;20190;-74
2021/05/31 04:31:15;;;;;;;7.43;6.72;;;;;;;11.67;69.17;99816.72;5053431;28;20201;-73
2021/05/31 04:33:42;;;;;;;7.53;5.03;;;;;;;11.64;69.04;99822.28;5054014;28;20221;-73
2021/05/31 04:36:10;;;;;;;6.40;5.70;;;;;;;11.64;68.84;99814.19;5053734;28;20192;-74
2021/05/31 04:38:37;;;;;;;6.45;5.85;;;;;;;11.65;68.96;99807.84;5053989;28;20193;-74
2021/05/31 04:41:05;;;;;;;6.38;5.70;;;;;;;11.81;67.93;99808.66;5053421;28;20272;-74
2021/05/31 04:43:31;;;;;;;8.10;5.40;;;;;;;11.99;66.84;99808.56;5053484;28;20610;-73
2021/05/31 04:45:58;;;;;;;7.68;5.63;;;;;;;12.05;66.81;99805.47;5053707;28;20225;-73
2021/05/31 04:48:24;;;;;;;7.78;5.60;;;;;;;12.06;67.07;99807.22;5053380;28;20224;-75
2021/05/31 04:50:56;;;;;;;7.88;6.20;;;;;;;12.12;66.87;99811.38;5053538;28;20280;-73
2021/05/31 04:53:24;;;;;;;7.20;5.60;;;;;;;12.26;66.82;99806.00;5053351;28;20276;-74
2021/05/31 04:55:51;;;;;;;8.30;5.57;;;;;;;12.35;65.47;99809.97;5053138;28;20547;-74
2021/05/31 04:58:17;;;;;;;8.80;6.30;;;;;;;12.36;65.84;99811.69;5054494;28;20200;-74
2021/05/31 05:00:44;;;;;;;6.97;6.28;;;;;;;12.43;65.45;99805.81;5057713;28;20288;-72
2021/05/31 05:03:10;;;;;;;33.35;29.95;;;;;;;12.83;64.40;99806.00;5052771;28;20232;-73
2021/05/31 05:05:36;;;;;;;7.35;6.65;;;;;;;13.05;63.11;99804.63;5052469;28;20225;-73
2021/05/31 05:08:02;;;;;;;9.07;5.88;;;;;;;13.21;62.36;99809.91;5053204;28;20668;-72
2021/05/31 05:10:30;;;;;;;9.20;6.28;;;;;;;13.36;61.84;99808.88;5053227;28;20635;-74
2021/05/31 05:12:56;;;;;;;7.72;5.70;;;;;;;13.53;61.23;99815.91;5052995;28;20202;-74
2021/05/31 05:15:23;;;;;;;5.53;5.03;;;;;;;13.46;60.80;99814.56;5053267;28;20271;-75
2021/05/31 05:17:50;;;;;;;5.88;5.28;;;;;;;13.48;60.71;99818.91;5052358;28;20262;-74
2021/05/31 05:20:18;;;;;;;9.25;6.10;;;;;;;13.63;60.07;99818.84;5050096;28;20197;-75
2021/05/31 05:22:44;;;;;;;6.00;5.45;;;;;;;13.75;59.40;99816.19;5052759;28;20279;-74
2021/05/31 05:25:12;;;;;;;6.70;5.50;;;;;;;13.79;59.14;99816.81;5051801;28;20213;-74
2021/05/31 05:27:41;;;;;;;9.18;6.00;;;;;;;13.91;58.26;99810.59;5052389;28;20201;-74
2021/05/31 05:30:10;;;;;;;8.50;6.63;;;;;;;14.11;57.32;99811.03;5052605;28;20608;-74
2021/05/31 05:32:36;;;;;;;6.50;5.28;;;;;;;14.32;55.55;99811.41;5051409;28;20286;-74
2021/05/31 05:35:16;;;;;;;7.75;4.90;;;;;;;14.45;54.47;99805.97;5052412;28;20629;-75
2021/05/31 05:37:55;;;;;;;5.82;5.28;;;;;;;14.58;53.65;99805.03;5052448;28;20188;-74
2021/05/31 05:43:15;;;;;;;5.53;4.57;;;;;;;14.83;52.69;99811.38;5051874;28;20220;-73
2021/05/31 05:45:51;;;;;;;6.85;5.20;;;;;;;14.96;52.61;99817.66;5052053;28;20210;-74
2021/05/31 05:48:17;;;;;;;7.22;5.13;;;;;;;15.12;51.87;99811.09;5052102;28;20205;-73
2021/05/31 05:50:43;;;;;;;7.30;5.15;;;;;;;15.22;50.53;99818.47;5051902;28;20250;-74
2021/05/31 05:53:10;;;;;;;4.75;4.35;;;;;;;15.19;50.92;99824.09;5051492;28;20222;-73
2021/05/31 05:55:36;;;;;;;6.07;5.00;;;;;;;15.12;50.87;99808.41;5052115;28;20184;-73
2021/05/31 05:58:04;;;;;;;8.00;4.90;;;;;;;14.97;50.87;99810.41;5051550;28;20187;-74
2021/05/31 06:00:32;;;;;;;5.82;4.55;;;;;;;14.96;51.05;99811.38;5051193;28;20233;-74
2021/05/31 06:02:59;;;;;;;4.88;4.15;;;;;;;15.23;50.46;99812.03;5048437;28;20232;-74
2021/05/31 06:05:26;;;;;;;5.15;4.55;;;;;;;15.30;49.67;99817.03;5032043;28;20294;-74
2021/05/31 06:07:52;;;;;;;6.30;3.95;;;;;;;15.38;49.14;99804.63;5049660;28;20279;-73
2021/05/31 06:10:19;;;;;;;4.25;3.55;;;;;;;15.31;49.16;99805.16;5051525;28;20183;-72
2021/05/31 06:12:45;;;;;;;9.15;4.35;;;;;;;15.40;49.04;99813.50;5051783;28;20211;-73
2021/05/31 06:15:14;;;;;;;5.82;4.60;;;;;;;15.43;48.69;99815.13;5051991;28;20322;-74
2021/05/31 06:17:40;;;;;;;5.97;4.90;;;;;;;15.52;48.37;99809.00;5051501;28;20204;-73
2021/05/31 06:20:08;;;;;;;7.47;4.15;;;;;;;15.58;48.06;99810.38;5060980;28;20289;-73
2021/05/31 06:22:39;;;;;;;4.30;3.90;;;;;;;15.60;48.05;99809.31;5072079;28;20304;-72
2021/05/31 06:25:07;;;;;;;5.60;3.58;;;;;;;15.73;47.66;99800.25;5072004;28;20596;-75
2021/05/31 06:27:33;;;;;;;10.00;4.43;;;;;;;16.00;47.13;99798.13;5071279;28;20248;-74
2021/05/31 06:29:59;;;;;;;5.43;4.00;;;;;;;15.89;46.98;99802.66;5071029;28;20291;-73
2021/05/31 06:32:27;;;;;;;4.82;3.63;;;;;;;16.14;46.55;99801.59;5071804;28;20292;-74
2021/05/31 06:34:54;;;;;;;6.47;3.85;;;;;;;16.36;45.77;99796.22;5051475;28;20588;-74
2021/05/31 06:37:20;;;;;;;4.78;4.18;;;;;;;16.45;45.50;99795.50;5051624;28;20182;-73
2021/05/31 06:39:46;;;;;;;3.78;3.40;;;;;;;16.58;45.13;99794.53;5052948;28;20263;-73
2021/05/31 06:42:12;;;;;;;6.22;4.28;;;;;;;16.71;44.62;99802.53;5054117;28;20224;-74
2021/05/31 06:44:39;;;;;;;6.03;5.47;;;;;;;16.79;44.34;99800.09;5055463;28;20190;-76
2021/05/31 06:47:07;;;;;;;4.93;4.20;;;;;;;16.83;44.37;99799.75;5054814;28;20220;-72
2021/05/31 06:49:35;;;;;;;4.55;4.10;;;;;;;17.05;43.91;99792.56;5054733;28;20192;-74
2021/05/31 06:52:02;;;;;;;4.47;3.80;;;;;;;16.88;43.59;99786.63;5066001;28;20214;-75
2021/05/31 06:54:28;;;;;;;6.53;3.67;;;;;;;16.92;43.22;99803.56;5075268;28;20579;-73
2021/05/31 06:56:54;;;;;;;4.22;3.60;;;;;;;17.05;43.24;99801.59;5075197;28;20276;-74
2021/05/31 06:59:20;;;;;;;5.70;3.70;;;;;;;17.36;42.82;99800.91;5075044;28;20509;-73
2021/05/31 07:01:47;;;;;;;6.22;5.65;;;;;;;17.46;42.32;99800.00;5071974;28;20200;-73
2021/05/31 07:04:13;;;;;;;4.30;3.45;;;;;;;17.39;42.14;99797.91;5054553;28;20239;-72
2021/05/31 07:06:40;;;;;;;6.93;4.50;;;;;;;17.26;42.30;99798.94;5054941;28;20710;-75
2021/05/31 07:09:07;;;;;;;6.68;3.58;;;;;;;17.41;42.26;99804.97;5054498;28;20201;-74
2021/05/31 07:11:33;;;;;;;3.85;3.55;;;;;;;17.62;41.97;99804.19;5054642;28;20185;-72
2021/05/31 07:14:01;;;;;;;3.70;3.40;;;;;;;17.77;41.55;99810.16;5054622;28;20564;-73
2021/05/31 07:16:30;;;;;;;4.68;4.22;;;;;;;17.94;41.67;99806.06;5054660;28;20197;-72
2021/05/31 07:18:56;;;;;;;4.38;3.72;;;;;;;18.00;41.34;99794.59;5053730;28;20551;-74
2021/05/31 07:21:22;;;;;;;6.22;3.90;;;;;;;18.37;40.82;99792.28;5054019;28;20621;-74
2021/05/31 07:23:50;;;;;;;3.97;3.58;;;;;;;18.08;40.98;99781.19;5054051;28;20303;-73
2021/05/31 07:26:16;;;;;;;4.55;3.00;;;;;;;18.00;40.72;99789.16;5053811;28;20205;-73
2021/05/31 07:28:42;;;;;;;7.97;4.43;;;;;;;18.10;40.93;99793.69;5054286;28;20600;-73
2021/05/31 07:31:08;;;;;;;7.03;3.95;;;;;;;18.52;39.54;99790.94;5054137;28;20190;-73
2021/05/31 07:33:34;;;;;;;4.40;3.05;;;;;;;18.53;39.69;99789.94;5053868;28;20691;-73
2021/05/31 07:36:02;;;;;;;4.15;3.50;;;;;;;18.63;39.67;99791.84;5053331;28;20189;-74
2021/05/31 07:38:28;;;;;;;4.30;3.35;;;;;;;18.88;39.17;99794.16;5053878;28;20706;-72
2021/05/31 07:40:56;;;;;;;4.45;3.40;;;;;;;18.81;38.43;99784.78;5053706;28;20229;-72
2021/05/31 07:43:22;;;;;;;3.85;3.40;;;;;;;19.07;37.54;99778.84;5054112;28;20315;-74
2021/05/31 07:45:49;;;;;;;5.57;3.45;;;;;;;19.40;37.59;99780.34;5053372;28;20272;-75
2021/05/31 07:48:15;;;;;;;4.55;3.30;;;;;;;19.50;37.47;99781.22;5053650;28;20242;-73
2021/05/31 07:50:41;;;;;;;5.95;3.55;;;;;;;19.81;36.71;99772.94;5052607;28;20525;-74
2021/05/31 07:53:07;;;;;;;4.80;3.50;;;;;;;19.89;36.87;99781.28;5053264;28;20682;-75
2021/05/31 07:55:33;;;;;;;3.80;3.50;;;;;;;19.66;37.43;99772.47;5053960;28;20204;-73
2021/05/31 07:58:01;;;;;;;4.20;3.80;;;;;;;19.48;38.11;99790.56;5054069;28;20227;-74
2021/05/31 08:00:29;;;;;;;4.10;3.53;;;;;;;19.95;37.01;99777.13;5053807;28;20200;-73
2021/05/31 08:02:56;;;;;;;3.22;2.92;;;;;;;19.89;36.91;99780.41;5053791;28;20207;-74
2021/05/31 08:05:23;;;;;;;4.18;3.55;;;;;;;20.12;36.71;99784.56;5053948;28;20244;-75
2021/05/31 08:07:50;;;;;;;2.95;2.65;;;;;;;20.30;35.51;99783.81;5053829;28;20724;-73
2021/05/31 08:10:16;;;;;;;4.95;3.58;;;;;;;20.13;35.78;99783.56;5053001;28;20649;-74
2021/05/31 08:12:43;;;;;;;3.72;3.30;;;;;;;20.13;35.35;99783.56;5053130;28;20678;-75
2021/05/31 08:15:12;;;;;;;5.13;2.90;;;;;;;19.83;35.19;99786.44;5053047;28;20345;-73
2021/05/31 08:17:38;;;;;;;3.42;3.13;;;;;;;19.91;34.75;99770.22;5053428;28;20185;-75
2021/05/31 08:20:10;;;;;;;3.17;2.90;;;;;;;19.91;35.13;99776.53;5053038;28;20201;-73
2021/05/31 08:22:38;;;;;;;3.97;3.00;;;;;;;19.93;34.75;99779.13;5051802;28;20203;-73
2021/05/31 08:25:06;;;;;;;3.42;3.10;;;;;;;19.96;34.63;99768.75;5053014;28;20257;-74
2021/05/31 08:27:32;;;;;;;6.05;3.22;;;;;;;19.97;35.28;99777.84;5053389;28;20227;-75
2021/05/31 08:29:58;;;;;;;5.40;4.90;;;;;;;20.11;34.85;99773.78;5052812;28;20207;-75
2021/05/31 08:32:26;;;;;;;4.00;3.60;;;;;;;20.24;34.74;99774.34;5053370;28;20200;-75
2021/05/31 08:34:53;;;;;;;6.95;3.63;;;;;;;20.41;34.53;99762.63;5053088;28;20600;-74
2021/05/31 08:37:19;;;;;;;3.17;2.85;;;;;;;20.61;34.28;99765.34;5052886;28;20283;-74
2021/05/31 08:39:46;;;;;;;3.25;2.90;;;;;;;20.62;34.07;99767.03;5052527;28;20228;-74
2021/05/31 08:42:12;;;;;;;5.95;4.15;;;;;;;20.79;33.31;99763.53;5052677;28;20505;-73
2021/05/31 08:44:38;;;;;;;6.70;3.03;;;;;;;20.51;32.93;99759.88;5052199;28;20227;-75
2021/05/31 08:47:05;;;;;;;3.25;2.75;;;;;;;20.34;33.30;99757.91;5052940;28;20224;-73
2021/05/31 08:49:32;;;;;;;3.60;2.75;;;;;;;20.60;33.17;99753.53;5053017;28;20196;-73
2021/05/31 08:51:59;;;;;;;4.18;3.17;;;;;;;20.98;32.39;99754.38;5052407;28;20308;-75
2021/05/31 08:54:25;;;;;;;2.92;2.60;;;;;;;20.77;31.73;99754.59;5052441;28;20292;-76
2021/05/31 08:56:51;;;;;;;5.10;2.90;;;;;;;20.60;31.17;99764.47;5052718;28;20572;-73
2021/05/31 08:59:20;;;;;;;2.63;2.42;;;;;;;20.67;31.48;99761.13;5052583;28;20645;-73
2021/05/31 09:01:47;;;;;;;4.77;2.80;;;;;;;20.71;31.41;99762.56;5051887;28;20258;-74
2021/05/31 09:04:15;;;;;;;4.80;3.08;;;;;;;20.94;31.19;99758.44;5052599;28;20443;-75
2021/05/31 09:06:53;;;;;;;5.53;2.97;;;;;;;20.68;30.38;99757.41;5052612;28;20212;-73
2021/05/31 09:09:20;;;;;;;3.07;2.47;;;;;;;20.88;31.10;99742.59;5052101;28;20232;-73
2021/05/31 09:11:54;;;;;;;3.60;2.83;;;;;;;20.66;30.95;99746.59;5052313;28;20430;-73
2021/05/31 09:14:21;;;;;;;3.40;2.70;;;;;;;20.76;30.96;99752.91;5052305;28;20212;-74
2021/05/31 09:16:48;;;;;;;6.63;3.67;;;;;;;20.84;30.89;99746.66;5051845;28;20436;-73
2021/05/31 09:19:15;;;;;;;6.50;3.63;;;;;;;21.13;30.46;99738.28;5049834;28;20428;-74
2021/05/31 09:21:43;;;;;;;3.50;2.53;;;;;;;21.20;30.16;99735.78;5032219;28;20659;-74
2021/05/31 09:24:13;;;;;;;4.20;3.60;;;;;;;21.18;29.74;99735.09;5031824;28;20484;-74
2021/05/31 09:26:47;;;;;;;3.70;3.17;;;;;;;21.42;30.01;99737.28;5041218;28;20486;-73
2021/05/31 09:29:14;;;;;;;4.23;2.60;;;;;;;21.58;29.45;99733.81;5051299;28;20563;-73
2021/05/31 09:31:41;;;;;;;4.17;2.90;;;;;;;21.25;29.59;99725.22;5051300;28;20439;-72
2021/05/31 09:34:08;;;;;;;3.40;3.03;;;;;;;21.70;29.25;99739.91;5051550;28;20451;-73
2021/05/31 09:36:49;;;;;;;3.53;3.23;;;;;;;21.62;29.35;99737.97;5051834;28;20893;-74
2021/05/31 09:39:15;;;;;;;9.27;2.90;;;;;;;21.65;28.79;99726.69;5051644;28;20991;-73
2021/05/31 09:41:44;;;;;;;11.03;3.20;;;;;;;21.82;28.84;99731.31;5051518;28;20472;-74
2021/05/31 09:44:11;;;;;;;2.60;2.40;;;;;;;21.67;29.61;99721.06;5051631;28;20443;-72
2021/05/31 09:46:40;;;;;;;3.50;3.20;;;;;;;21.50;28.65;99731.84;5050859;28;20580;-72
2021/05/31 09:49:15;;;;;;;3.87;3.13;;;;;;;21.53;28.57;99722.47;5051152;28;20440;-73
2021/05/31 09:51:54;;;;;;;8.47;2.77;;;;;;;21.15;29.05;99725.31;5051127;28;20913;-75
2021/05/31 09:54:35;;;;;;;3.67;3.00;;;;;;;21.34;29.28;99723.44;5051347;28;20427;-73
2021/05/31 09:57:14;;;;;;;3.93;2.93;;;;;;;21.26;28.82;99724.22;5051079;28;20499;-75
2021/05/31 09:59:41;;;;;;;4.77;2.77;;;;;;;21.24;29.05;99718.91;5051371;28;20508;-73
2021/05/31 10:02:09;;;;;;;4.23;2.90;;;;;;;21.66;28.67;99717.44;5051426;28;20465;-74
2021/05/31 10:04:43;;;;;;;2.97;2.77;;;;;;;21.44;28.21;99725.13;5051193;28;20437;-73
2021/05/31 10:07:20;;;;;;;4.80;3.40;;;;;;;21.60;28.30;99712.63;5051229;28;20482;-72
2021/05/31 10:09:47;;;;;;;2.83;2.50;;;;;;;21.74;28.54;99722.16;5051308;28;20259;-74
2021/05/31 10:12:14;;;;;;;3.50;3.20;;;;;;;21.88;28.39;99732.53;5051224;28;20439;-74
2021/05/31 10:14:41;;;;;;;4.20;3.80;;;;;;;21.93;28.44;99723.84;5050340;28;20980;-75
2021/05/31 10:17:07;;;;;;;4.53;3.10;;;;;;;22.02;27.14;99711.91;5051162;28;20527;-73
2021/05/31 10:19:34;;;;;;;5.17;2.70;;;;;;;21.43;27.38;99714.31;5047160;28;20429;-73
2021/05/31 10:22:00;;;;;;;3.47;2.70;;;;;;;21.56;27.47;99711.19;5031516;28;20546;-74
2021/05/31 10:24:28;;;;;;;4.40;3.10;;;;;;;21.73;27.79;99707.59;5030821;28;20536;-75
2021/05/31 10:26:56;;;;;;;4.00;3.00;;;;;;;22.10;27.84;99698.28;5030766;28;20503;-75
2021/05/31 10:29:23;;;;;;;3.70;2.60;;;;;;;21.85;27.04;99697.25;5030998;28;20911;-75
2021/05/31 10:31:49;;;;;;;4.20;3.77;;;;;;;21.97;27.02;99709.66;5030989;28;20540;-74
2021/05/31 10:34:20;;;;;;;3.63;3.30;;;;;;;22.23;26.84;99708.84;5030841;28;20436;-74
2021/05/31 10:36:51;;;;;;;4.20;3.00;;;;;;;22.12;27.48;99701.72;5031063;28;20548;-73
2021/05/31 10:39:23;;;;;;;3.87;2.70;;;;;;;22.19;27.15;99701.94;5031120;28;20484;-73
2021/05/31 10:42:03;;;;;;;3.20;2.90;;;;;;;22.08;26.47;99708.53;5031248;28;20445;-74
2021/05/31 10:44:32;;;;;;;3.60;2.70;;;;;;;22.02;25.85;99709.16;5042899;28;20889;-74
2021/05/31 10:47:05;;;;;;;2.60;2.40;;;;;;;22.05;25.69;99711.63;5050979;28;20479;-73
2021/05/31 10:49:31;;;;;;;5.00;3.03;;;;;;;21.98;26.47;99705.03;5050890;28;20523;-74
2021/05/31 10:51:57;;;;;;;2.80;2.60;;;;;;;22.16;26.58;99697.63;5050205;28;20452;-75
2021/05/31 10:54:25;;;;;;;2.90;2.43;;;;;;;22.23;26.47;99698.75;5050748;28;20454;-74
2021/05/31 10:57:04;;;;;;;6.53;2.50;;;;;;;22.12;26.04;99704.47;5051110;28;20462;-72
2021/05/31 10:59:30;;;;;;;3.90;3.00;;;;;;;22.05;26.66;99696.00;5050659;28;20521;-74
2021/05/31 11:01:56;;;;;;;5.80;3.60;;;;;;;22.01;26.72;99700.09;5050964;28;20530;-74
2021/05/31 11:04:25;;;;;;;2.93;2.60;;;;;;;22.30;26.00;99687.13;5050757;28;20447;-74
2021/05/31 11:06:53;;;;;;;3.70;3.23;;;;;;;21.98;26.23;99683.09;5050900;28;20985;-75
2021/05/31 11:09:21;;;;;;;3.60;2.50;;;;;;;21.95;27.06;99686.16;5051054;28;20898;-73
2021/05/31 11:11:49;;;;;;;8.50;4.40;;;;;;;21.98;27.27;99686.72;5050149;28;20440;-75
2021/05/31 11:14:18;;;;;;;3.17;2.93;;;;;;;22.36;25.83;99672.75;5050246;28;20494;-74
2021/05/31 11:16:54;;;;;;;2.97;2.70;;;;;;;22.46;25.86;99678.97;5050611;28;20514;-74
2021/05/31 11:19:34;;;;;;;2.90;2.63;;;;;;;22.43;25.81;99674.69;5047684;28;20514;-75
2021/05/31 11:22:11;;;;;;;3.90;3.40;;;;;;;22.62;25.37;99665.31;5030740;28;20476;-75
2021/05/31 11:24:37;;;;;;;3.80;3.37;;;;;;;22.80;25.00;99667.13;5030671;28;20512;-74
2021/05/31 11:27:04;;;;;;;4.60;3.47;;;;;;;22.58;25.18;99666.69;5033987;28;20520;-75
2021/05/31 11:29:32;;;;;;;6.57;2.67;;;;;;;22.44;25.40;99678.28;5033970;28;20463;-73
2021/05/31 11:31:58;;;;;;;4.73;2.90;;;;;;;22.61;25.38;99666.38;5033852;28;20433;-73
2021/05/31 11:34:24;;;;;;;4.50;2.87;;;;;;;22.25;25.55;99658.31;5034183;28;20437;-73
2021/05/31 11:36:50;;;;;;;2.70;2.50;;;;;;;22.47;25.51;99666.97;5033240;28;20424;-74
2021/05/31 11:39:18;;;;;;;3.90;3.50;;;;;;;22.76;25.07;99654.75;5048262;28;20510;-73
2021/05/31 11:41:47;;;;;;;3.87;2.67;;;;;;;22.53;25.40;99671.81;5054329;28;20515;-72
2021/05/31 11:44:15;;;;;;;2.83;2.63;;;;;;;22.64;24.79;99662.44;5053686;28;20447;-73